sensor_id;sensor_type;location;lat;lon;timestamp;temperature;humidity
7972;DHT22;4031;49.758;6.120;2022-12-05T00:00:14;0.50;99.90
7972;DHT22;4031;49.758;6.120;2022-12-05T00:02:40;0.50;99.90
7972;DHT22;4031;49.758;6.120;2022-12-05T00:05:06;0.50;99.90
7972;DHT22;4031;49.758;6.120;2022-12-05T00:07:32;0.50;99.90
7972;DHT22;4031;49.758;6.120;2022-12-05T00:09:58;0.50;99.90
7972;DHT22;4031;49.758;6.120;2022-12-05T00:12:24;0.50;99.90
7972;DHT22;4031;49.758;6.120;2022-12-05T00:14:49;0.50;99.90
7972;DHT22;4031;49.758;6.120;2022-12-05T00:17:15;0.50;99.90
7972;DHT22;4031;49.758;6.120;2022-12-05T00:19:41;0.50;99.90
7972;DHT22;4031;49.758;6.120;2022-12-05T00:22:06;0.50;99.90
7972;DHT22;4031;49.758;6.120;2022-12-05T00:24:32;0.50;99.90
7972;DHT22;4031;49.758;6.120;2022-12-05T00:26:58;0.50;99.90
7972;DHT22;4031;49.758;6.120;2022-12-05T00:29:23;0.40;99.90
7972;DHT22;4031;49.758;6.120;2022-12-05T00:31:49;0.40;99.90
7972;DHT22;4031;49.758;6.120;2022-12-05T00:34:15;0.50;99.90
7972;DHT22;4031;49.758;6.120;2022-12-05T00:36:41;0.40;99.90
7972;DHT22;4031;49.758;6.120;2022-12-05T00:39:09;0.40;99.90
7972;DHT22;4031;49.758;6.120;2022-12-05T00:41:36;0.40;99.90
7972;DHT22;4031;49.758;6.120;2022-12-05T00:44:02;0.50;99.90
7972;DHT22;4031;49.758;6.120;2022-12-05T00:46:30;0.50;99.90
7972;DHT22;4031;49.758;6.120;2022-12-05T00:48:57;0.50;99.90
7972;DHT22;4031;49.758;6.120;2022-12-05T00:51:30;0.40;99.90
7972;DHT22;4031;49.758;6.120;2022-12-05T00:53:59;0.40;99.90
7972;DHT22;4031;49.758;6.120;2022-12-05T00:56:27;0.40;99.90
7972;DHT22;4031;49.758;6.120;2022-12-05T00:58:54;0.40;99.90
7972;DHT22;4031;49.758;6.120;2022-12-05T01:01:24;0.40;99.90
7972;DHT22;4031;49.758;6.120;2022-12-05T01:03:55;0.40;99.90
7972;DHT22;4031;49.758;6.120;2022-12-05T01:06:23;0.40;99.90
7972;DHT22;4031;49.758;6.120;2022-12-05T01:08:51;0.40;99.90
7972;DHT22;4031;49.758;6.120;2022-12-05T01:11:18;0.40;99.90
7972;DHT22;4031;49.758;6.120;2022-12-05T01:13:45;0.40;99.90
7972;DHT22;4031;49.758;6.120;2022-12-05T01:16:26;0.40;99.90
7972;DHT22;4031;49.758;6.120;2022-12-05T01:18:55;0.40;99.90
7972;DHT22;4031;49.758;6.120;2022-12-05T01:21:22;0.50;99.90
7972;DHT22;4031;49.758;6.120;2022-12-05T01:23:48;0.50;99.90
7972;DHT22;4031;49.758;6.120;2022-12-05T01:26:17;0.50;99.90
7972;DHT22;4031;49.758;6.120;2022-12-05T01:28:43;0.50;99.90
7972;DHT22;4031;49.758;6.120;2022-12-05T01:31:29;0.60;99.90
7972;DHT22;4031;49.758;6.120;2022-12-05T01:33:58;0.50;99.90
7972;DHT22;4031;49.758;6.120;2022-12-05T01:36:26;0.50;99.90
7972;DHT22;4031;49.758;6.120;2022-12-05T01:38:52;0.50;99.90
7972;DHT22;4031;49.758;6.120;2022-12-05T01:41:23;0.50;99.90
7972;DHT22;4031;49.758;6.120;2022-12-05T01:46:32;0.40;99.90
7972;DHT22;4031;49.758;6.120;2022-12-05T01:49:03;0.40;99.90
7972;DHT22;4031;49.758;6.120;2022-12-05T01:51:31;0.40;99.90
7972;DHT22;4031;49.758;6.120;2022-12-05T01:53:58;0.50;99.90
7972;DHT22;4031;49.758;6.120;2022-12-05T01:56:24;0.40;99.90
7972;DHT22;4031;49.758;6.120;2022-12-05T01:58:51;0.40;99.90
7972;DHT22;4031;49.758;6.120;2022-12-05T02:01:19;0.40;99.90
7972;DHT22;4031;49.758;6.120;2022-12-05T02:03:47;0.50;99.90
7972;DHT22;4031;49.758;6.120;2022-12-05T02:06:15;0.40;99.90
7972;DHT22;4031;49.758;6.120;2022-12-05T02:08:42;0.40;99.90
7972;DHT22;4031;49.758;6.120;2022-12-05T02:11:09;0.40;99.90
7972;DHT22;4031;49.758;6.120;2022-12-05T02:31:30;0.40;99.90
7972;DHT22;4031;49.758;6.120;2022-12-05T02:36:55;0.40;99.90
7972;DHT22;4031;49.758;6.120;2022-12-05T02:39:44;0.40;99.90
7972;DHT22;4031;49.758;6.120;2022-12-05T02:45:03;0.40;99.90
7972;DHT22;4031;49.758;6.120;2022-12-05T02:47:37;0.40;99.90
7972;DHT22;4031;49.758;6.120;2022-12-05T02:50:08;0.40;99.90
7972;DHT22;4031;49.758;6.120;2022-12-05T02:52:37;0.40;99.90
7972;DHT22;4031;49.758;6.120;2022-12-05T02:55:04;0.40;99.90
7972;DHT22;4031;49.758;6.120;2022-12-05T02:57:33;0.40;99.90
7972;DHT22;4031;49.758;6.120;2022-12-05T02:59:59;0.40;99.90
7972;DHT22;4031;49.758;6.120;2022-12-05T03:02:30;0.30;99.90
7972;DHT22;4031;49.758;6.120;2022-12-05T03:07:57;0.40;99.90
7972;DHT22;4031;49.758;6.120;2022-12-05T03:10:27;0.40;99.90
7972;DHT22;4031;49.758;6.120;2022-12-05T03:12:57;0.40;99.90
7972;DHT22;4031;49.758;6.120;2022-12-05T03:15:39;0.40;99.90
7972;DHT22;4031;49.758;6.120;2022-12-05T03:18:25;0.40;99.90
7972;DHT22;4031;49.758;6.120;2022-12-05T03:24:00;0.40;99.90
7972;DHT22;4031;49.758;6.120;2022-12-05T03:32:32;0.40;99.90
7972;DHT22;4031;49.758;6.120;2022-12-05T03:38:24;0.50;99.90
7972;DHT22;4031;49.758;6.120;2022-12-05T03:41:22;0.40;99.90
7972;DHT22;4031;49.758;6.120;2022-12-05T03:44:11;0.50;99.90
7972;DHT22;4031;49.758;6.120;2022-12-05T03:46:45;0.40;99.90
7972;DHT22;4031;49.758;6.120;2022-12-05T03:49:35;0.50;99.90
7972;DHT22;4031;49.758;6.120;2022-12-05T03:52:15;0.50;99.90
7972;DHT22;4031;49.758;6.120;2022-12-05T03:55:04;0.50;99.90
7972;DHT22;4031;49.758;6.120;2022-12-05T04:00:20;0.50;99.90
7972;DHT22;4031;49.758;6.120;2022-12-05T04:05:31;0.50;99.90
7972;DHT22;4031;49.758;6.120;2022-12-05T04:08:06;0.50;99.90
7972;DHT22;4031;49.758;6.120;2022-12-05T04:10:57;0.50;99.90
7972;DHT22;4031;49.758;6.120;2022-12-05T04:13:36;0.60;99.90
7972;DHT22;4031;49.758;6.120;2022-12-05T04:16:10;0.50;99.90
7972;DHT22;4031;49.758;6.120;2022-12-05T04:19:00;0.60;99.90
7972;DHT22;4031;49.758;6.120;2022-12-05T04:21:35;0.60;99.90
7972;DHT22;4031;49.758;6.120;2022-12-05T04:24:19;0.60;99.90
7972;DHT22;4031;49.758;6.120;2022-12-05T04:30:09;0.60;99.90
7972;DHT22;4031;49.758;6.120;2022-12-05T04:35:29;0.60;99.90
7972;DHT22;4031;49.758;6.120;2022-12-05T04:38:03;0.50;99.90
7972;DHT22;4031;49.758;6.120;2022-12-05T04:40:48;0.50;99.90
7972;DHT22;4031;49.758;6.120;2022-12-05T04:43:19;0.60;99.90
7972;DHT22;4031;49.758;6.120;2022-12-05T04:45:46;0.60;99.90
7972;DHT22;4031;49.758;6.120;2022-12-05T04:48:15;0.60;99.90
7972;DHT22;4031;49.758;6.120;2022-12-05T04:50:44;0.60;99.90
7972;DHT22;4031;49.758;6.120;2022-12-05T04:53:12;0.60;99.90
7972;DHT22;4031;49.758;6.120;2022-12-05T04:55:43;0.60;99.90
7972;DHT22;4031;49.758;6.120;2022-12-05T04:58:12;0.60;99.90
7972;DHT22;4031;49.758;6.120;2022-12-05T05:00:58;0.60;99.90
7972;DHT22;4031;49.758;6.120;2022-12-05T05:03:37;0.60;99.90
7972;DHT22;4031;49.758;6.120;2022-12-05T05:06:08;0.60;99.90
7972;DHT22;4031;49.758;6.120;2022-12-05T05:08:35;0.60;99.90
7972;DHT22;4031;49.758;6.120;2022-12-05T05:11:10;0.70;99.90
7972;DHT22;4031;49.758;6.120;2022-12-05T05:13:38;0.60;99.90
7972;DHT22;4031;49.758;6.120;2022-12-05T05:16:04;0.70;99.90
7972;DHT22;4031;49.758;6.120;2022-12-05T05:18:30;0.70;99.90
7972;DHT22;4031;49.758;6.120;2022-12-05T05:20:55;0.70;99.90
7972;DHT22;4031;49.758;6.120;2022-12-05T05:23:21;0.70;99.90
7972;DHT22;4031;49.758;6.120;2022-12-05T05:25:54;0.70;99.90
7972;DHT22;4031;49.758;6.120;2022-12-05T05:28:21;0.70;99.90
7972;DHT22;4031;49.758;6.120;2022-12-05T05:30:47;0.70;99.90
7972;DHT22;4031;49.758;6.120;2022-12-05T05:33:13;0.70;99.90
7972;DHT22;4031;49.758;6.120;2022-12-05T05:35:39;0.70;99.90
7972;DHT22;4031;49.758;6.120;2022-12-05T05:38:05;0.80;99.90
7972;DHT22;4031;49.758;6.120;2022-12-05T05:40:34;0.70;99.90
7972;DHT22;4031;49.758;6.120;2022-12-05T05:43:01;0.70;99.90
7972;DHT22;4031;49.758;6.120;2022-12-05T05:45:27;0.70;99.90
7972;DHT22;4031;49.758;6.120;2022-12-05T05:47:52;0.70;99.90
7972;DHT22;4031;49.758;6.120;2022-12-05T05:50:18;0.80;99.90
7972;DHT22;4031;49.758;6.120;2022-12-05T05:52:44;0.70;99.90
7972;DHT22;4031;49.758;6.120;2022-12-05T05:55:09;0.80;99.90
7972;DHT22;4031;49.758;6.120;2022-12-05T05:57:35;0.80;99.90
7972;DHT22;4031;49.758;6.120;2022-12-05T06:00:04;0.90;99.90
7972;DHT22;4031;49.758;6.120;2022-12-05T06:02:33;0.80;99.90
7972;DHT22;4031;49.758;6.120;2022-12-05T06:04:59;0.80;99.90
7972;DHT22;4031;49.758;6.120;2022-12-05T06:07:25;0.80;99.90
7972;DHT22;4031;49.758;6.120;2022-12-05T06:09:51;0.80;99.90
7972;DHT22;4031;49.758;6.120;2022-12-05T06:12:17;0.70;99.90
7972;DHT22;4031;49.758;6.120;2022-12-05T06:14:43;0.80;99.90
7972;DHT22;4031;49.758;6.120;2022-12-05T06:17:08;0.80;99.90
7972;DHT22;4031;49.758;6.120;2022-12-05T06:19:34;0.80;99.90
7972;DHT22;4031;49.758;6.120;2022-12-05T06:22:00;0.80;99.90
7972;DHT22;4031;49.758;6.120;2022-12-05T06:24:26;0.80;99.90
7972;DHT22;4031;49.758;6.120;2022-12-05T06:26:52;0.80;99.90
7972;DHT22;4031;49.758;6.120;2022-12-05T06:29:17;0.80;99.90
7972;DHT22;4031;49.758;6.120;2022-12-05T06:31:43;0.70;99.90
7972;DHT22;4031;49.758;6.120;2022-12-05T06:34:09;0.80;99.90
7972;DHT22;4031;49.758;6.120;2022-12-05T06:36:35;0.80;99.90
7972;DHT22;4031;49.758;6.120;2022-12-05T06:39:00;0.70;99.90
7972;DHT22;4031;49.758;6.120;2022-12-05T06:41:26;0.70;99.90
7972;DHT22;4031;49.758;6.120;2022-12-05T06:43:53;0.80;99.90
7972;DHT22;4031;49.758;6.120;2022-12-05T06:46:20;0.70;99.90
7972;DHT22;4031;49.758;6.120;2022-12-05T06:48:47;0.80;99.90
7972;DHT22;4031;49.758;6.120;2022-12-05T06:51:15;0.80;99.90
7972;DHT22;4031;49.758;6.120;2022-12-05T06:53:41;0.80;99.90
7972;DHT22;4031;49.758;6.120;2022-12-05T06:56:11;0.80;99.90
7972;DHT22;4031;49.758;6.120;2022-12-05T06:58:42;0.80;99.90
7972;DHT22;4031;49.758;6.120;2022-12-05T07:01:17;0.80;99.90
7972;DHT22;4031;49.758;6.120;2022-12-05T07:04:03;0.80;99.90
7972;DHT22;4031;49.758;6.120;2022-12-05T07:06:31;0.80;99.90
7972;DHT22;4031;49.758;6.120;2022-12-05T07:08:57;0.80;99.90
7972;DHT22;4031;49.758;6.120;2022-12-05T07:11:23;0.90;99.90
7972;DHT22;4031;49.758;6.120;2022-12-05T07:13:49;0.90;99.90
7972;DHT22;4031;49.758;6.120;2022-12-05T07:16:15;0.90;99.90
7972;DHT22;4031;49.758;6.120;2022-12-05T07:18:40;0.90;99.90
7972;DHT22;4031;49.758;6.120;2022-12-05T07:21:10;0.90;99.90
7972;DHT22;4031;49.758;6.120;2022-12-05T07:23:37;0.90;99.90
7972;DHT22;4031;49.758;6.120;2022-12-05T07:26:11;0.90;99.90
7972;DHT22;4031;49.758;6.120;2022-12-05T07:28:38;0.90;99.90
7972;DHT22;4031;49.758;6.120;2022-12-05T07:31:07;1.00;99.90
7972;DHT22;4031;49.758;6.120;2022-12-05T07:33:34;0.90;99.90
7972;DHT22;4031;49.758;6.120;2022-12-05T07:36:03;0.90;99.90
7972;DHT22;4031;49.758;6.120;2022-12-05T07:38:34;1.00;99.90
7972;DHT22;4031;49.758;6.120;2022-12-05T07:41:04;1.00;99.90
7972;DHT22;4031;49.758;6.120;2022-12-05T07:43:51;0.90;99.90
7972;DHT22;4031;49.758;6.120;2022-12-05T07:46:18;1.00;99.90
7972;DHT22;4031;49.758;6.120;2022-12-05T07:48:44;0.90;99.90
7972;DHT22;4031;49.758;6.120;2022-12-05T07:51:10;1.00;99.90
7972;DHT22;4031;49.758;6.120;2022-12-05T07:53:36;1.00;99.90
7972;DHT22;4031;49.758;6.120;2022-12-05T07:56:05;1.00;99.90
7972;DHT22;4031;49.758;6.120;2022-12-05T07:58:32;1.00;99.90
7972;DHT22;4031;49.758;6.120;2022-12-05T08:01:10;1.00;99.90
7972;DHT22;4031;49.758;6.120;2022-12-05T08:03:38;1.10;99.90
7972;DHT22;4031;49.758;6.120;2022-12-05T08:06:07;1.10;99.90
7972;DHT22;4031;49.758;6.120;2022-12-05T08:08:37;1.10;99.90
7972;DHT22;4031;49.758;6.120;2022-12-05T08:11:05;1.10;99.90
7972;DHT22;4031;49.758;6.120;2022-12-05T08:13:32;1.20;99.90
7972;DHT22;4031;49.758;6.120;2022-12-05T08:16:07;1.20;99.90
7972;DHT22;4031;49.758;6.120;2022-12-05T08:18:35;1.30;99.90
7972;DHT22;4031;49.758;6.120;2022-12-05T08:21:06;1.30;99.90
7972;DHT22;4031;49.758;6.120;2022-12-05T08:23:34;1.30;99.90
7972;DHT22;4031;49.758;6.120;2022-12-05T08:26:05;1.30;99.90
7972;DHT22;4031;49.758;6.120;2022-12-05T08:28:33;1.30;99.90
7972;DHT22;4031;49.758;6.120;2022-12-05T08:31:04;1.30;99.90
7972;DHT22;4031;49.758;6.120;2022-12-05T08:33:31;1.40;99.90
7972;DHT22;4031;49.758;6.120;2022-12-05T08:35:59;1.40;99.90
7972;DHT22;4031;49.758;6.120;2022-12-05T08:38:30;1.30;99.90
7972;DHT22;4031;49.758;6.120;2022-12-05T08:40:55;1.40;99.90
7972;DHT22;4031;49.758;6.120;2022-12-05T08:43:21;1.40;99.90
7972;DHT22;4031;49.758;6.120;2022-12-05T08:45:51;1.40;99.90
7972;DHT22;4031;49.758;6.120;2022-12-05T08:48:17;1.50;99.90
7972;DHT22;4031;49.758;6.120;2022-12-05T08:50:44;1.60;99.90
7972;DHT22;4031;49.758;6.120;2022-12-05T08:53:10;1.60;99.90
7972;DHT22;4031;49.758;6.120;2022-12-05T08:55:36;1.70;99.90
7972;DHT22;4031;49.758;6.120;2022-12-05T08:58:02;1.70;99.90
7972;DHT22;4031;49.758;6.120;2022-12-05T09:00:28;1.70;99.90
7972;DHT22;4031;49.758;6.120;2022-12-05T09:02:54;1.80;99.90
7972;DHT22;4031;49.758;6.120;2022-12-05T09:05:21;1.80;99.90
7972;DHT22;4031;49.758;6.120;2022-12-05T09:07:47;1.90;99.90
7972;DHT22;4031;49.758;6.120;2022-12-05T09:10:13;1.80;99.90
7972;DHT22;4031;49.758;6.120;2022-12-05T09:12:39;1.90;99.90
7972;DHT22;4031;49.758;6.120;2022-12-05T09:15:05;1.90;99.90
7972;DHT22;4031;49.758;6.120;2022-12-05T09:17:32;1.90;99.90
7972;DHT22;4031;49.758;6.120;2022-12-05T09:19:58;1.90;99.90
7972;DHT22;4031;49.758;6.120;2022-12-05T09:22:24;1.90;99.90
7972;DHT22;4031;49.758;6.120;2022-12-05T09:24:50;1.90;99.90
7972;DHT22;4031;49.758;6.120;2022-12-05T09:27:16;1.90;99.90
7972;DHT22;4031;49.758;6.120;2022-12-05T09:29:42;1.90;99.90
7972;DHT22;4031;49.758;6.120;2022-12-05T09:32:08;1.90;99.90
7972;DHT22;4031;49.758;6.120;2022-12-05T09:34:38;1.90;99.90
7972;DHT22;4031;49.758;6.120;2022-12-05T09:37:05;2.00;99.90
7972;DHT22;4031;49.758;6.120;2022-12-05T09:39:32;2.00;99.90
7972;DHT22;4031;49.758;6.120;2022-12-05T09:53:31;2.10;99.90
7972;DHT22;4031;49.758;6.120;2022-12-05T10:04:16;2.40;99.90
7972;DHT22;4031;49.758;6.120;2022-12-05T10:07:22;2.50;99.90
7972;DHT22;4031;49.758;6.120;2022-12-05T10:15:52;2.60;99.90
7972;DHT22;4031;49.758;6.120;2022-12-05T10:18:40;2.60;99.90
7972;DHT22;4031;49.758;6.120;2022-12-05T10:24:01;2.50;99.90
7972;DHT22;4031;49.758;6.120;2022-12-05T10:26:33;2.60;99.90
7972;DHT22;4031;49.758;6.120;2022-12-05T10:31:44;2.70;99.90
7972;DHT22;4031;49.758;6.120;2022-12-05T10:34:37;2.80;99.90
7972;DHT22;4031;49.758;6.120;2022-12-05T10:37:20;2.90;99.90
7972;DHT22;4031;49.758;6.120;2022-12-05T10:39:48;3.10;99.90
7972;DHT22;4031;49.758;6.120;2022-12-05T10:44:55;3.30;99.90
7972;DHT22;4031;49.758;6.120;2022-12-05T10:47:22;3.30;99.90
7972;DHT22;4031;49.758;6.120;2022-12-05T10:49:48;3.30;99.90
7972;DHT22;4031;49.758;6.120;2022-12-05T10:52:15;3.30;99.90
7972;DHT22;4031;49.758;6.120;2022-12-05T10:54:50;3.30;99.90
7972;DHT22;4031;49.758;6.120;2022-12-05T10:57:23;3.20;99.90
7972;DHT22;4031;49.758;6.120;2022-12-05T10:59:51;3.30;99.90
7972;DHT22;4031;49.758;6.120;2022-12-05T11:02:29;3.30;99.90
7972;DHT22;4031;49.758;6.120;2022-12-05T11:04:57;3.30;99.90
7972;DHT22;4031;49.758;6.120;2022-12-05T11:07:30;3.40;99.90
7972;DHT22;4031;49.758;6.120;2022-12-05T11:10:00;3.40;99.90
7972;DHT22;4031;49.758;6.120;2022-12-05T11:12:35;3.50;99.90
7972;DHT22;4031;49.758;6.120;2022-12-05T11:17:53;3.50;99.90
7972;DHT22;4031;49.758;6.120;2022-12-05T11:22:51;3.60;99.90
7972;DHT22;4031;49.758;6.120;2022-12-05T11:25:23;3.50;99.90
7972;DHT22;4031;49.758;6.120;2022-12-05T11:28:00;3.40;99.90
7972;DHT22;4031;49.758;6.120;2022-12-05T11:33:38;3.40;99.90
7972;DHT22;4031;49.758;6.120;2022-12-05T11:36:39;3.50;99.90
7972;DHT22;4031;49.758;6.120;2022-12-05T11:39:05;3.50;99.90
7972;DHT22;4031;49.758;6.120;2022-12-05T11:41:38;3.60;99.90
7972;DHT22;4031;49.758;6.120;2022-12-05T11:48:07;3.70;99.90
7972;DHT22;4031;49.758;6.120;2022-12-05T11:57:06;3.70;99.90
7972;DHT22;4031;49.758;6.120;2022-12-05T12:00:20;3.70;99.90
7972;DHT22;4031;49.758;6.120;2022-12-05T12:08:53;3.70;99.90
7972;DHT22;4031;49.758;6.120;2022-12-05T12:17:10;3.70;99.90
7972;DHT22;4031;49.758;6.120;2022-12-05T12:29:35;3.60;99.90
7972;DHT22;4031;49.758;6.120;2022-12-05T12:35:29;3.60;99.90
7972;DHT22;4031;49.758;6.120;2022-12-05T12:46:56;3.60;99.90
7972;DHT22;4031;49.758;6.120;2022-12-05T12:55:46;3.60;99.90
7972;DHT22;4031;49.758;6.120;2022-12-05T13:01:50;3.70;99.90
7972;DHT22;4031;49.758;6.120;2022-12-05T13:04:33;3.70;99.90
7972;DHT22;4031;49.758;6.120;2022-12-05T13:09:54;3.80;99.90
7972;DHT22;4031;49.758;6.120;2022-12-05T13:12:26;3.80;99.90
7972;DHT22;4031;49.758;6.120;2022-12-05T13:14:59;3.80;99.90
7972;DHT22;4031;49.758;6.120;2022-12-05T13:17:28;3.80;99.90
7972;DHT22;4031;49.758;6.120;2022-12-05T13:19:55;3.90;99.90
7972;DHT22;4031;49.758;6.120;2022-12-05T13:22:23;4.00;99.90
7972;DHT22;4031;49.758;6.120;2022-12-05T13:24:51;3.90;99.90
7972;DHT22;4031;49.758;6.120;2022-12-05T13:27:19;3.90;99.90
7972;DHT22;4031;49.758;6.120;2022-12-05T13:29:54;3.90;99.90
7972;DHT22;4031;49.758;6.120;2022-12-05T13:37:48;3.80;99.90
7972;DHT22;4031;49.758;6.120;2022-12-05T13:40:34;3.80;99.90
7972;DHT22;4031;49.758;6.120;2022-12-05T13:43:24;3.80;99.90
7972;DHT22;4031;49.758;6.120;2022-12-05T13:46:10;3.80;99.90
7972;DHT22;4031;49.758;6.120;2022-12-05T13:48:45;3.70;99.90
7972;DHT22;4031;49.758;6.120;2022-12-05T13:51:26;3.70;99.90
7972;DHT22;4031;49.758;6.120;2022-12-05T13:54:21;3.60;99.90
7972;DHT22;4031;49.758;6.120;2022-12-05T13:56:53;3.60;99.90
7972;DHT22;4031;49.758;6.120;2022-12-05T14:00:01;3.50;99.90
7972;DHT22;4031;49.758;6.120;2022-12-05T14:07:42;3.40;99.90
7972;DHT22;4031;49.758;6.120;2022-12-05T14:15:49;3.40;99.90
7972;DHT22;4031;49.758;6.120;2022-12-05T14:21:14;3.30;99.90
7972;DHT22;4031;49.758;6.120;2022-12-05T14:29:38;3.30;99.90
7972;DHT22;4031;49.758;6.120;2022-12-05T14:32:35;3.30;99.90
7972;DHT22;4031;49.758;6.120;2022-12-05T14:37:57;3.30;99.90
7972;DHT22;4031;49.758;6.120;2022-12-05T14:40:32;3.30;99.90
7972;DHT22;4031;49.758;6.120;2022-12-05T14:43:20;3.40;99.90
7972;DHT22;4031;49.758;6.120;2022-12-05T14:50:49;3.30;99.90
7972;DHT22;4031;49.758;6.120;2022-12-05T14:58:59;3.30;99.90
7972;DHT22;4031;49.758;6.120;2022-12-05T15:01:39;3.20;99.90
7972;DHT22;4031;49.758;6.120;2022-12-05T15:04:19;3.20;99.90
7972;DHT22;4031;49.758;6.120;2022-12-05T15:07:37;3.20;99.90
7972;DHT22;4031;49.758;6.120;2022-12-05T15:09:56;3.20;99.90
7972;DHT22;4031;49.758;6.120;2022-12-05T15:12:51;3.20;99.90
7972;DHT22;4031;49.758;6.120;2022-12-05T15:21:35;3.20;99.90
7972;DHT22;4031;49.758;6.120;2022-12-05T15:24:11;3.20;99.90
7972;DHT22;4031;49.758;6.120;2022-12-05T15:26:40;3.20;99.90
7972;DHT22;4031;49.758;6.120;2022-12-05T15:38:12;3.10;99.90
7972;DHT22;4031;49.758;6.120;2022-12-05T15:40:47;3.10;99.90
7972;DHT22;4031;49.758;6.120;2022-12-05T15:43:31;3.20;99.90
7972;DHT22;4031;49.758;6.120;2022-12-05T15:48:57;3.10;99.90
7972;DHT22;4031;49.758;6.120;2022-12-05T15:51:36;3.10;99.90
7972;DHT22;4031;49.758;6.120;2022-12-05T15:54:12;3.10;99.90
7972;DHT22;4031;49.758;6.120;2022-12-05T15:56:44;3.00;99.90
7972;DHT22;4031;49.758;6.120;2022-12-05T15:59:35;3.00;99.90
7972;DHT22;4031;49.758;6.120;2022-12-05T16:02:24;3.00;99.90
7972;DHT22;4031;49.758;6.120;2022-12-05T16:04:59;3.00;99.90
7972;DHT22;4031;49.758;6.120;2022-12-05T16:07:27;3.00;99.90
7972;DHT22;4031;49.758;6.120;2022-12-05T16:09:58;3.00;99.90
7972;DHT22;4031;49.758;6.120;2022-12-05T16:12:37;3.10;99.90
7972;DHT22;4031;49.758;6.120;2022-12-05T16:15:11;3.00;99.90
7972;DHT22;4031;49.758;6.120;2022-12-05T16:17:42;3.00;99.90
7972;DHT22;4031;49.758;6.120;2022-12-05T16:20:24;2.90;99.90
7972;DHT22;4031;49.758;6.120;2022-12-05T16:22:56;3.00;99.90
7972;DHT22;4031;49.758;6.120;2022-12-05T16:25:30;3.00;99.90
7972;DHT22;4031;49.758;6.120;2022-12-05T16:30:33;3.00;99.90
7972;DHT22;4031;49.758;6.120;2022-12-05T16:33:05;3.00;99.90
7972;DHT22;4031;49.758;6.120;2022-12-05T16:45:56;2.90;99.90
7972;DHT22;4031;49.758;6.120;2022-12-05T16:48:27;2.90;99.90
7972;DHT22;4031;49.758;6.120;2022-12-05T16:53:50;2.90;99.90
7972;DHT22;4031;49.758;6.120;2022-12-05T16:56:23;2.90;99.90
7972;DHT22;4031;49.758;6.120;2022-12-05T16:58:54;2.90;99.90
7972;DHT22;4031;49.758;6.120;2022-12-05T17:01:22;2.90;99.90
7972;DHT22;4031;49.758;6.120;2022-12-05T17:03:50;2.90;99.90
7972;DHT22;4031;49.758;6.120;2022-12-05T17:06:18;2.90;99.90
7972;DHT22;4031;49.758;6.120;2022-12-05T17:08:46;2.90;99.90
7972;DHT22;4031;49.758;6.120;2022-12-05T17:11:26;2.80;99.90
7972;DHT22;4031;49.758;6.120;2022-12-05T17:13:55;2.90;99.90
7972;DHT22;4031;49.758;6.120;2022-12-05T17:16:22;2.90;99.90
7972;DHT22;4031;49.758;6.120;2022-12-05T17:18:48;2.90;99.90
7972;DHT22;4031;49.758;6.120;2022-12-05T17:21:21;2.80;99.90
7972;DHT22;4031;49.758;6.120;2022-12-05T17:23:50;2.90;99.90
7972;DHT22;4031;49.758;6.120;2022-12-05T17:26:18;2.80;99.90
7972;DHT22;4031;49.758;6.120;2022-12-05T17:28:46;2.90;99.90
7972;DHT22;4031;49.758;6.120;2022-12-05T17:31:16;2.80;99.90
7972;DHT22;4031;49.758;6.120;2022-12-05T17:33:44;2.90;99.90
7972;DHT22;4031;49.758;6.120;2022-12-05T17:36:10;2.80;99.90
7972;DHT22;4031;49.758;6.120;2022-12-05T17:38:36;2.80;99.90
7972;DHT22;4031;49.758;6.120;2022-12-05T17:41:02;2.80;99.90
7972;DHT22;4031;49.758;6.120;2022-12-05T17:43:28;2.80;99.90
7972;DHT22;4031;49.758;6.120;2022-12-05T17:45:53;2.80;99.90
7972;DHT22;4031;49.758;6.120;2022-12-05T17:48:20;2.80;99.90
7972;DHT22;4031;49.758;6.120;2022-12-05T17:50:47;2.80;99.90
7972;DHT22;4031;49.758;6.120;2022-12-05T17:53:16;2.80;99.90
7972;DHT22;4031;49.758;6.120;2022-12-05T17:55:43;2.80;99.90
7972;DHT22;4031;49.758;6.120;2022-12-05T17:58:12;2.80;99.90
7972;DHT22;4031;49.758;6.120;2022-12-05T18:00:39;2.70;99.90
7972;DHT22;4031;49.758;6.120;2022-12-05T18:03:06;2.70;99.90
7972;DHT22;4031;49.758;6.120;2022-12-05T18:05:32;2.70;99.90
7972;DHT22;4031;49.758;6.120;2022-12-05T18:07:59;2.70;99.90
7972;DHT22;4031;49.758;6.120;2022-12-05T18:10:25;2.70;99.90
7972;DHT22;4031;49.758;6.120;2022-12-05T18:12:51;2.70;99.90
7972;DHT22;4031;49.758;6.120;2022-12-05T18:15:17;2.70;99.90
7972;DHT22;4031;49.758;6.120;2022-12-05T18:17:42;2.70;99.90
7972;DHT22;4031;49.758;6.120;2022-12-05T18:20:10;2.70;99.90
7972;DHT22;4031;49.758;6.120;2022-12-05T18:22:39;2.70;99.90
7972;DHT22;4031;49.758;6.120;2022-12-05T18:25:05;2.70;99.90
7972;DHT22;4031;49.758;6.120;2022-12-05T18:27:33;2.70;99.90
7972;DHT22;4031;49.758;6.120;2022-12-05T18:29:59;2.70;99.90
7972;DHT22;4031;49.758;6.120;2022-12-05T18:32:25;2.70;99.90
7972;DHT22;4031;49.758;6.120;2022-12-05T18:34:51;2.60;99.90
7972;DHT22;4031;49.758;6.120;2022-12-05T18:37:16;2.60;99.90
7972;DHT22;4031;49.758;6.120;2022-12-05T18:39:43;2.60;99.90
7972;DHT22;4031;49.758;6.120;2022-12-05T18:42:09;2.60;99.90
7972;DHT22;4031;49.758;6.120;2022-12-05T18:44:35;2.60;99.90
7972;DHT22;4031;49.758;6.120;2022-12-05T18:47:01;2.60;99.90
7972;DHT22;4031;49.758;6.120;2022-12-05T18:49:27;2.60;99.90
7972;DHT22;4031;49.758;6.120;2022-12-05T18:51:53;2.60;99.90
7972;DHT22;4031;49.758;6.120;2022-12-05T18:54:19;2.60;99.90
7972;DHT22;4031;49.758;6.120;2022-12-05T18:56:44;2.60;99.90
7972;DHT22;4031;49.758;6.120;2022-12-05T18:59:16;2.60;99.90
7972;DHT22;4031;49.758;6.120;2022-12-05T19:01:44;2.60;99.90
7972;DHT22;4031;49.758;6.120;2022-12-05T19:04:12;2.60;99.90
7972;DHT22;4031;49.758;6.120;2022-12-05T19:06:40;2.60;99.90
7972;DHT22;4031;49.758;6.120;2022-12-05T19:09:12;2.50;99.90
7972;DHT22;4031;49.758;6.120;2022-12-05T19:11:41;2.50;99.90
7972;DHT22;4031;49.758;6.120;2022-12-05T19:14:09;2.50;99.90
7972;DHT22;4031;49.758;6.120;2022-12-05T19:16:36;2.50;99.90
7972;DHT22;4031;49.758;6.120;2022-12-05T19:19:04;2.50;99.90
7972;DHT22;4031;49.758;6.120;2022-12-05T19:21:33;2.50;99.90
7972;DHT22;4031;49.758;6.120;2022-12-05T19:24:04;2.50;99.90
7972;DHT22;4031;49.758;6.120;2022-12-05T19:26:31;2.50;99.90
7972;DHT22;4031;49.758;6.120;2022-12-05T19:28:58;2.50;99.90
7972;DHT22;4031;49.758;6.120;2022-12-05T19:31:25;2.50;99.90
7972;DHT22;4031;49.758;6.120;2022-12-05T19:33:53;2.50;99.90
7972;DHT22;4031;49.758;6.120;2022-12-05T19:36:23;2.50;99.90
7972;DHT22;4031;49.758;6.120;2022-12-05T19:38:53;2.40;99.90
7972;DHT22;4031;49.758;6.120;2022-12-05T19:41:22;2.50;99.90
7972;DHT22;4031;49.758;6.120;2022-12-05T19:43:49;2.40;99.90
7972;DHT22;4031;49.758;6.120;2022-12-05T19:46:21;2.50;99.90
7972;DHT22;4031;49.758;6.120;2022-12-05T19:48:52;2.50;99.90
7972;DHT22;4031;49.758;6.120;2022-12-05T19:51:20;2.40;99.90
7972;DHT22;4031;49.758;6.120;2022-12-05T19:53:46;2.40;99.90
7972;DHT22;4031;49.758;6.120;2022-12-05T19:56:18;2.40;99.90
7972;DHT22;4031;49.758;6.120;2022-12-05T19:58:45;2.50;99.90
7972;DHT22;4031;49.758;6.120;2022-12-05T20:01:23;2.50;99.90
7972;DHT22;4031;49.758;6.120;2022-12-05T20:03:56;2.50;99.90
7972;DHT22;4031;49.758;6.120;2022-12-05T20:06:25;2.50;99.90
7972;DHT22;4031;49.758;6.120;2022-12-05T20:08:54;2.50;99.90
7972;DHT22;4031;49.758;6.120;2022-12-05T20:11:22;2.50;99.90
7972;DHT22;4031;49.758;6.120;2022-12-05T20:13:54;2.40;99.90
7972;DHT22;4031;49.758;6.120;2022-12-05T20:16:21;2.40;99.90
7972;DHT22;4031;49.758;6.120;2022-12-05T20:18:50;2.40;99.90
7972;DHT22;4031;49.758;6.120;2022-12-05T20:21:19;2.40;99.90
7972;DHT22;4031;49.758;6.120;2022-12-05T20:23:46;2.50;99.90